Time;durP1;ratioP1;P1;durP2;ratioP2;P2;SDS_P1;SDS_P2;PMS_P1;PMS_P2;Temp;Humidity;BMP_temperature;BMP_pressure;BME280_temperature;BME280_humidity;BME280_pressure;Samples;Min_cycle;Max_cycle;Signal;HPM_P1;HPM_P2
2023/12/31 00:00:33;;;;;;;22.77;20.38;;;;;;;10.95;77.27;98244.38;5090493;28;20031;-49
2023/12/31 00:02:59;;;;;;;16.23;14.52;;;;;;;10.98;76.82;98225.56;5091831;28;20069;-49
2023/12/31 00:05:25;;;;;;;16.80;14.85;;;;;;;11.02;77.19;98256.66;5091621;28;20020;-49
2023/12/31 00:07:51;;;;;;;16.40;13.40;;;;;;;11.09;76.67;98229.34;5090691;28;20032;-49
2023/12/31 00:10:17;;;;;;;18.23;14.80;;;;;;;11.15;76.71;98235.56;5091678;28;20055;-49
2023/12/31 00:12:47;;;;;;;40.47;18.65;;;;;;;11.25;76.88;98227.16;5091994;28;20031;-49
2023/12/31 00:15:13;;;;;;;18.88;16.80;;;;;;;11.34;76.54;98239.00;5096031;28;20020;-49
2023/12/31 00:17:39;;;;;;;17.00;15.00;;;;;;;11.32;75.19;98230.56;5094506;28;20405;-49
2023/12/31 00:20:05;;;;;;;18.77;13.10;;;;;;;11.40;75.40;98204.78;5095703;28;20024;-49
2023/12/31 00:22:31;;;;;;;15.48;12.05;;;;;;;11.46;75.33;98215.47;5095713;28;20023;-49
2023/12/31 00:24:57;;;;;;;15.80;12.68;;;;;;;11.50;74.56;98208.75;5094234;28;20024;-49
2023/12/31 00:27:23;;;;;;;14.75;12.32;;;;;;;11.62;74.77;98206.22;5094036;28;20502;-49
2023/12/31 00:29:49;;;;;;;13.95;12.32;;;;;;;11.70;73.14;98219.84;5094286;28;20115;-48
2023/12/31 00:32:16;;;;;;;13.57;11.50;;;;;;;11.71;73.54;98218.03;5095479;28;20039;-49
2023/12/31 00:34:41;;;;;;;16.73;13.80;;;;;;;11.86;72.73;98184.28;5095512;28;20485;-49
2023/12/31 00:37:07;;;;;;;23.73;10.63;;;;;;;11.89;71.50;98191.78;5095430;28;20066;-49
2023/12/31 00:39:33;;;;;;;12.25;9.50;;;;;;;11.90;70.76;98174.97;5094137;28;20085;-49
2023/12/31 00:41:59;;;;;;;13.40;11.32;;;;;;;11.87;70.87;98161.41;5095328;28;20031;-49
2023/12/31 00:44:24;;;;;;;11.88;10.43;;;;;;;11.99;70.62;98139.47;5094229;28;20032;-49
2023/12/31 00:46:50;;;;;;;14.90;9.48;;;;;;;12.16;68.79;98147.50;5094143;28;20040;-49
2023/12/31 00:49:17;;;;;;;16.95;10.85;;;;;;;12.21;69.67;98138.16;5095201;28;20051;-49
2023/12/31 00:51:44;;;;;;;10.02;7.90;;;;;;;12.28;67.66;98134.41;5095119;28;20031;-49
2023/12/31 00:54:10;;;;;;;12.77;9.50;;;;;;;12.23;66.88;98146.63;5076983;28;20069;-49
2023/12/31 00:56:36;;;;;;;9.40;8.13;;;;;;;12.17;66.07;98132.53;5095119;28;20040;-49
2023/12/31 00:59:02;;;;;;;12.25;9.63;;;;;;;12.07;66.98;98127.81;5095053;28;20398;-49
2023/12/31 01:01:28;;;;;;;11.13;9.38;;;;;;;12.17;65.91;98104.41;5095025;28;20078;-49
2023/12/31 01:03:54;;;;;;;14.02;7.50;;;;;;;12.19;64.82;98112.88;5094975;28;20433;-49
2023/12/31 01:06:20;;;;;;;9.98;6.70;;;;;;;12.21;64.67;98117.91;5093740;28;20031;-49
2023/12/31 01:08:46;;;;;;;7.03;5.40;;;;;;;12.27;63.96;98105.69;5093831;28;20105;-49
2023/12/31 01:11:11;;;;;;;8.30;6.93;;;;;;;12.20;63.62;98113.69;5093351;28;20118;-49
2023/12/31 01:13:37;;;;;;;7.47;5.80;;;;;;;12.11;63.82;98136.06;5094729;28;20036;-48
2023/12/31 01:16:04;;;;;;;10.00;5.55;;;;;;;12.17;63.88;98129.91;5094639;28;20447;-49
2023/12/31 01:18:30;;;;;;;8.90;6.20;;;;;;;12.14;63.66;98104.84;5094602;28;20024;-48
2023/12/31 01:20:56;;;;;;;11.75;10.38;;;;;;;12.27;63.01;98121.47;5093380;28;20028;-49
2023/12/31 01:23:22;;;;;;;7.68;4.97;;;;;;;12.41;60.59;98107.06;5093248;28;20508;-49
2023/12/31 01:25:47;;;;;;;4.82;3.78;;;;;;;12.59;59.92;98117.50;5094246;28;20033;-49
2023/12/31 01:28:13;;;;;;;6.95;4.63;;;;;;;12.72;59.94;98118.34;5092848;28;20101;-49
2023/12/31 01:30:40;;;;;;;5.97;4.50;;;;;;;12.86;58.68;98124.16;5094338;28;20482;-49
2023/12/31 01:33:06;;;;;;;7.45;4.22;;;;;;;12.98;58.63;98117.91;5093031;28;20032;-49
2023/12/31 01:35:31;;;;;;;5.30;3.70;;;;;;;13.15;56.99;98122.47;5094303;28;20104;-49
2023/12/31 01:37:57;;;;;;;6.10;4.03;;;;;;;13.22;54.24;98125.78;5094276;28;20498;-50
2023/12/31 01:40:23;;;;;;;6.05;2.55;;;;;;;13.27;53.30;98069.75;5094241;28;20073;-49
2023/12/31 01:42:48;;;;;;;6.20;2.60;;;;;;;13.34;52.02;98120.50;5094184;28;20023;-49
2023/12/31 01:45:14;;;;;;;2.92;2.22;;;;;;;13.47;50.61;98117.63;5094041;28;20402;-49
2023/12/31 01:47:41;;;;;;;4.55;1.70;;;;;;;13.59;50.36;98099.16;5094026;28;20070;-49
2023/12/31 01:50:07;;;;;;;4.50;2.72;;;;;;;13.79;50.50;98102.16;5092713;28;20114;-47
2023/12/31 01:52:34;;;;;;;3.25;2.70;;;;;;;14.01;50.30;98088.31;5093904;28;20016;-47
2023/12/31 01:55:04;;;;;;;2.83;2.00;;;;;;;14.24;48.83;98086.59;5092618;28;20024;-47
2023/12/31 01:57:33;;;;;;;6.78;2.40;;;;;;;14.40;49.21;98080.50;5092872;28;20530;-47
2023/12/31 02:00:03;;;;;;;5.68;2.85;;;;;;;14.47;49.08;98069.81;5093910;28;20436;-47
2023/12/31 02:02:30;;;;;;;3.38;2.22;;;;;;;14.58;48.78;98075.00;5093784;28;20489;-47
2023/12/31 02:04:56;;;;;;;3.58;2.80;;;;;;;14.69;48.73;98067.25;5093665;28;20406;-47
2023/12/31 02:07:23;;;;;;;6.57;3.40;;;;;;;14.74;49.08;98062.03;5093681;28;20111;-47
2023/12/31 02:09:50;;;;;;;3.80;2.88;;;;;;;14.90;48.80;98063.84;5093672;28;20016;-47
2023/12/31 02:12:16;;;;;;;3.88;3.38;;;;;;;14.88;48.06;98071.22;5093598;28;20035;-46
2023/12/31 02:14:42;;;;;;;3.33;2.65;;;;;;;14.77;48.76;98059.72;5092322;28;20401;-47
2023/12/31 02:17:07;;;;;;;4.97;3.33;;;;;;;14.64;49.06;98062.69;5092126;28;20028;-47
2023/12/31 02:19:33;;;;;;;7.60;5.97;;;;;;;14.46;49.31;98069.00;5093477;28;20066;-47
2023/12/31 02:22:00;;;;;;;22.95;13.40;;;;;;;14.43;50.48;98074.75;5092374;28;20046;-47
2023/12/31 02:24:34;;;;;;;16.52;11.15;;;;;;;14.51;50.24;98065.66;5093537;28;20027;-48
2023/12/31 02:26:59;;;;;;;4.78;3.97;;;;;;;14.73;49.81;98061.25;5093348;28;20115;-47
2023/12/31 02:29:25;;;;;;;9.43;4.40;;;;;;;14.71;49.48;98073.91;5093023;28;20608;-47
2023/12/31 02:31:51;;;;;;;9.45;4.85;;;;;;;14.65;49.54;98068.75;5093187;28;20043;-47
2023/12/31 02:34:17;;;;;;;7.03;3.72;;;;;;;14.46;49.78;98084.03;5091883;28;20024;-47
2023/12/31 02:36:43;;;;;;;7.28;5.82;;;;;;;14.22;51.40;98083.38;5092442;28;20046;-47
2023/12/31 02:39:09;;;;;;;5.80;4.40;;;;;;;14.23;51.63;98085.00;5093025;28;20031;-47
2023/12/31 02:41:34;;;;;;;8.55;4.85;;;;;;;14.09;51.87;98080.00;5091750;28;20502;-47
2023/12/31 02:44:01;;;;;;;6.95;5.30;;;;;;;14.10;52.79;98067.63;5091638;28;20063;-47
2023/12/31 02:46:27;;;;;;;7.72;5.18;;;;;;;14.08;52.60;98057.28;5092866;28;20024;-47
2023/12/31 02:48:53;;;;;;;8.20;5.32;;;;;;;14.07;53.01;98065.47;5092931;28;20022;-47
2023/12/31 02:51:18;;;;;;;8.93;5.72;;;;;;;14.03;53.30;98056.44;5091783;28;20039;-47
2023/12/31 02:53:44;;;;;;;7.22;5.70;;;;;;;13.92;53.40;98052.78;5092920;28;20432;-47
2023/12/31 02:56:10;;;;;;;6.80;5.70;;;;;;;13.83;53.82;98048.97;5092801;28;20057;-47
2023/12/31 02:58:36;;;;;;;11.30;9.48;;;;;;;13.67;54.22;98046.03;5091405;28;20050;-47
2023/12/31 03:01:02;;;;;;;10.32;8.73;;;;;;;13.51;55.45;98050.22;5092706;28;20114;-47
2023/12/31 03:03:27;;;;;;;16.92;10.90;;;;;;;13.58;56.24;98056.16;5091369;28;20123;-47
2023/12/31 03:05:53;;;;;;;10.70;9.30;;;;;;;13.56;55.98;98055.59;5092475;28;20016;-47
2023/12/31 03:08:19;;;;;;;13.05;10.05;;;;;;;13.45;57.09;98053.78;5091225;28;20073;-47
2023/12/31 03:10:44;;;;;;;11.95;8.73;;;;;;;13.34;57.09;98041.44;5091168;28;20020;-47
2023/12/31 03:13:10;;;;;;;10.32;7.80;;;;;;;13.22;57.64;98036.19;5091129;28;20490;-47
2023/12/31 03:15:36;;;;;;;10.70;8.70;;;;;;;13.22;58.00;98044.09;5091130;28;20024;-47
2023/12/31 03:18:02;;;;;;;12.65;8.70;;;;;;;13.25;58.89;98030.44;5092617;28;20027;-47
2023/12/31 03:20:28;;;;;;;13.43;10.57;;;;;;;13.30;58.90;98030.59;5092392;28;20039;-47
2023/12/31 03:22:53;;;;;;;11.02;7.95;;;;;;;13.34;58.74;98026.44;5091054;28;20031;-47
2023/12/31 03:25:19;;;;;;;10.52;8.82;;;;;;;13.40;58.97;98024.72;5090850;28;20466;-47
2023/12/31 03:27:45;;;;;;;10.95;8.07;;;;;;;13.43;58.41;98032.16;5090714;28;20486;-48
2023/12/31 03:30:11;;;;;;;9.32;7.45;;;;;;;13.39;58.47;98026.53;5092261;28;20402;-47
2023/12/31 03:32:37;;;;;;;11.90;8.43;;;;;;;13.36;59.05;98026.19;5092105;28;20031;-47
2023/12/31 03:35:03;;;;;;;9.93;7.75;;;;;;;13.44;58.77;98030.31;5090769;28;20028;-47
2023/12/31 03:37:30;;;;;;;10.13;7.95;;;;;;;13.36;58.48;98034.94;5092133;28;20020;-47
2023/12/31 03:39:56;;;;;;;10.48;8.07;;;;;;;13.27;58.97;98036.28;5092025;28;20032;-47
2023/12/31 03:42:22;;;;;;;9.70;8.45;;;;;;;13.26;59.62;98039.97;5092050;28;20027;-47
2023/12/31 03:44:47;;;;;;;9.95;8.13;;;;;;;13.33;59.64;98037.22;5091968;28;20020;-47
2023/12/31 03:47:13;;;;;;;14.52;8.38;;;;;;;13.55;60.20;98045.28;5090885;28;20040;-47
2023/12/31 03:49:39;;;;;;;10.88;8.18;;;;;;;13.69;59.15;98049.25;5091932;28;20015;-47
2023/12/31 03:52:06;;;;;;;12.45;8.95;;;;;;;13.62;59.24;98048.56;5091888;28;20474;-47
2023/12/31 03:54:32;;;;;;;11.35;8.85;;;;;;;13.54;59.43;98062.13;5092115;28;20028;-47
2023/12/31 03:56:58;;;;;;;11.82;8.95;;;;;;;13.59;60.11;98059.59;5092049;28;20032;-47
2023/12/31 03:59:24;;;;;;;13.68;8.25;;;;;;;13.72;59.82;98069.06;5091787;28;20486;-47
2023/12/31 04:01:56;;;;;;;11.07;7.93;;;;;;;13.70;59.43;98061.41;5091789;28;20040;-47
2023/12/31 04:04:23;;;;;;;12.75;7.97;;;;;;;13.66;59.42;98065.53;5090547;28;20036;-47
2023/12/31 04:06:48;;;;;;;9.88;8.23;;;;;;;13.61;59.67;98065.44;5090647;28;20024;-47
2023/12/31 04:09:15;;;;;;;12.27;7.72;;;;;;;13.59;59.59;98049.06;5091744;28;20103;-47
2023/12/31 04:11:41;;;;;;;14.95;9.13;;;;;;;13.68;59.91;98060.00;5090401;28;20054;-47
2023/12/31 04:14:07;;;;;;;11.25;7.50;;;;;;;13.75;59.61;98066.75;5090694;28;20094;-47
2023/12/31 04:16:32;;;;;;;10.18;7.53;;;;;;;13.83;59.78;98054.22;5091654;28;20490;-47
2023/12/31 04:18:58;;;;;;;7.97;7.03;;;;;;;14.05;59.54;98051.72;5090395;28;20024;-47
2023/12/31 04:21:24;;;;;;;9.90;6.88;;;;;;;14.17;58.08;98053.22;5073529;28;20412;-47
2023/12/31 04:23:50;;;;;;;9.13;7.25;;;;;;;14.11;58.08;98048.91;5091658;28;20646;-47
2023/12/31 04:26:16;;;;;;;10.25;8.50;;;;;;;14.15;57.95;98055.31;5090161;28;20469;-47
2023/12/31 04:28:42;;;;;;;7.80;7.00;;;;;;;14.18;57.89;98052.22;5091340;28;20036;-47
2023/12/31 04:31:08;;;;;;;9.82;8.20;;;;;;;14.16;57.90;98054.25;5090136;28;20127;-47
2023/12/31 04:33:35;;;;;;;8.45;6.78;;;;;;;14.20;57.42;98054.59;5090268;28;20024;-47
2023/12/31 04:36:05;;;;;;;7.53;6.57;;;;;;;14.07;57.87;98052.28;5090129;28;20042;-47
2023/12/31 04:38:32;;;;;;;10.23;6.72;;;;;;;14.12;57.83;98039.16;5090198;28;20571;-47
2023/12/31 04:40:58;;;;;;;9.20;6.85;;;;;;;14.17;57.76;98033.97;5091383;28;20050;-47
2023/12/31 04:43:24;;;;;;;13.30;7.05;;;;;;;14.21;57.95;98026.38;5090119;28;20086;-47
2023/12/31 04:45:49;;;;;;;11.50;7.18;;;;;;;14.29;57.36;98023.34;5091398;28;20058;-47
2023/12/31 04:48:15;;;;;;;11.05;6.60;;;;;;;14.38;57.64;98038.50;5090194;28;20452;-47
2023/12/31 04:50:43;;;;;;;9.77;6.97;;;;;;;14.57;57.12;98033.03;5091413;28;20028;-47
2023/12/31 04:53:08;;;;;;;13.30;6.25;;;;;;;14.67;56.49;98046.38;5090072;28;20442;-47
2023/12/31 04:55:34;;;;;;;7.35;6.60;;;;;;;14.68;56.16;98058.53;5090010;28;20070;-47
2023/12/31 04:58:00;;;;;;;9.35;5.90;;;;;;;14.54;55.93;98068.59;5090043;28;20455;-47
2023/12/31 05:00:26;;;;;;;9.32;6.30;;;;;;;14.44;56.20;98065.78;5092930;28;20071;-47
2023/12/31 05:02:51;;;;;;;8.07;5.90;;;;;;;14.31;56.55;98066.13;5094993;28;20032;-47
2023/12/31 05:05:17;;;;;;;8.18;6.00;;;;;;;14.26;57.09;98058.91;5093554;28;20020;-47
2023/12/31 05:07:43;;;;;;;6.90;5.18;;;;;;;14.30;56.43;98061.88;5094837;28;20081;-47
2023/12/31 05:10:09;;;;;;;9.35;6.10;;;;;;;14.20;56.37;98065.13;5094821;28;20027;-47
2023/12/31 05:12:35;;;;;;;8.85;5.25;;;;;;;14.14;57.15;98063.47;5093564;28;20035;-47
2023/12/31 05:15:00;;;;;;;5.53;4.57;;;;;;;14.15;57.30;98055.31;5094753;28;20110;-47
2023/12/31 05:17:26;;;;;;;10.05;6.65;;;;;;;14.16;57.12;98064.03;5094718;28;20028;-47
2023/12/31 05:19:52;;;;;;;6.70;5.07;;;;;;;14.22;56.71;98067.56;5094736;28;20073;-47
2023/12/31 05:22:18;;;;;;;8.93;5.47;;;;;;;14.28;56.99;98066.59;5094480;28;20474;-47
2023/12/31 05:24:44;;;;;;;5.90;4.57;;;;;;;14.45;56.67;98069.25;5094564;28;20052;-47
2023/12/31 05:27:10;;;;;;;8.57;5.40;;;;;;;14.51;56.15;98071.72;5093197;28;20111;-47
2023/12/31 05:29:35;;;;;;;6.15;4.43;;;;;;;14.51;55.91;98073.56;5092982;28;20081;-48
2023/12/31 05:32:01;;;;;;;6.68;5.43;;;;;;;14.54;56.10;98071.22;5093144;28;20035;-47
2023/12/31 05:34:27;;;;;;;7.60;4.57;;;;;;;14.63;55.94;98070.84;5094477;28;20073;-47
2023/12/31 05:36:52;;;;;;;7.85;6.05;;;;;;;14.77;55.16;98077.41;5093073;28;20085;-47
2023/12/31 05:39:18;;;;;;;10.25;4.95;;;;;;;14.82;55.15;98080.13;5093035;28;20024;-47
2023/12/31 05:41:44;;;;;;;5.65;4.28;;;;;;;14.88;55.17;98073.88;5092921;28;20073;-47
2023/12/31 05:44:12;;;;;;;10.48;5.07;;;;;;;14.92;54.87;98076.81;5092866;28;20024;-47
2023/12/31 05:46:37;;;;;;;7.00;4.60;;;;;;;15.13;54.90;98085.81;5094338;28;20027;-47
2023/12/31 05:49:03;;;;;;;6.38;4.28;;;;;;;15.13;54.29;98094.56;5094106;28;20021;-48
2023/12/31 05:51:29;;;;;;;7.63;4.90;;;;;;;15.00;53.98;98091.47;5094074;28;20024;-47
2023/12/31 05:53:55;;;;;;;6.13;4.50;;;;;;;14.89;55.43;98082.59;5092736;28;20114;-47
2023/12/31 05:56:20;;;;;;;8.95;4.10;;;;;;;14.94;54.60;98083.47;5075776;28;20047;-47
2023/12/31 05:58:48;;;;;;;24.05;21.67;;;;;;;14.97;55.31;98072.41;5092589;28;20096;-47
2023/12/31 06:01:15;;;;;;;6.95;4.60;;;;;;;15.09;54.38;98061.75;5094109;28;20035;-47
2023/12/31 06:03:41;;;;;;;6.22;5.18;;;;;;;14.95;54.53;98058.66;5093849;28;20146;-47
2023/12/31 06:06:07;;;;;;;5.53;4.00;;;;;;;14.70;54.74;98060.94;5093634;28;20420;-47
2023/12/31 06:08:33;;;;;;;7.28;4.35;;;;;;;14.58;55.53;98067.09;5092401;28;20028;-47
2023/12/31 06:10:59;;;;;;;5.07;4.00;;;;;;;14.53;56.34;98060.94;5092669;28;20117;-47
2023/12/31 06:13:25;;;;;;;8.63;4.18;;;;;;;14.57;56.59;98062.06;5092311;28;20028;-47
2023/12/31 06:15:51;;;;;;;4.82;4.00;;;;;;;14.52;56.22;98062.75;5092275;28;20044;-47
2023/12/31 06:18:16;;;;;;;6.53;4.43;;;;;;;14.51;57.06;98061.16;5093574;28;20024;-47
2023/12/31 06:20:42;;;;;;;5.95;3.88;;;;;;;14.71;56.29;98054.63;5093437;28;20486;-47
2023/12/31 06:23:08;;;;;;;7.78;4.50;;;;;;;14.73;59.00;98053.31;5092073;28;20073;-47
2023/12/31 06:25:33;;;;;;;6.65;4.30;;;;;;;14.63;59.05;98065.56;5092044;28;20484;-47
2023/12/31 06:27:59;;;;;;;9.63;3.70;;;;;;;14.38;59.83;98058.84;5091779;28;20047;-48
2023/12/31 06:30:25;;;;;;;6.40;3.58;;;;;;;14.25;60.02;98072.38;5093313;28;20028;-47
2023/12/31 06:32:51;;;;;;;7.30;4.75;;;;;;;14.21;59.74;98063.31;5093479;28;20028;-47
2023/12/31 06:35:16;;;;;;;8.73;3.90;;;;;;;14.21;59.73;98058.84;5093148;28;20103;-47
2023/12/31 06:37:42;;;;;;;4.78;4.30;;;;;;;14.22;60.47;98051.72;5091897;28;20343;-47
2023/12/31 06:40:09;;;;;;;5.60;4.07;;;;;;;14.31;60.23;98031.81;5093101;28;20028;-47
2023/12/31 06:42:34;;;;;;;8.57;4.07;;;;;;;14.35;60.59;98041.66;5091757;28;20028;-47
2023/12/31 06:45:00;;;;;;;7.03;3.85;;;;;;;14.33;60.14;98042.94;5092964;28;20478;-47
2023/12/31 06:47:26;;;;;;;7.30;4.47;;;;;;;14.18;60.42;98054.84;5091891;28;20577;-47
2023/12/31 06:49:52;;;;;;;5.72;3.90;;;;;;;14.14;60.85;98066.09;5092967;28;20031;-47
2023/12/31 06:52:18;;;;;;;12.25;4.50;;;;;;;14.04;61.19;98060.66;5092855;28;20020;-47
2023/12/31 06:54:44;;;;;;;6.07;3.78;;;;;;;14.08;61.82;98056.50;5092863;28;20032;-48
2023/12/31 06:57:10;;;;;;;7.10;3.97;;;;;;;13.96;62.10;98054.75;5092753;28;20030;-47
2023/12/31 06:59:36;;;;;;;6.55;3.75;;;;;;;13.93;62.87;98054.41;5091462;28;20024;-47
2023/12/31 07:02:02;;;;;;;8.77;7.47;;;;;;;13.94;62.93;98051.53;5092684;28;20024;-47
2023/12/31 07:04:28;;;;;;;10.02;4.40;;;;;;;14.03;63.29;98046.66;5092582;28;20024;-47
2023/12/31 07:06:54;;;;;;;9.60;5.18;;;;;;;14.01;63.10;98032.13;5092586;28;20016;-47
2023/12/31 07:09:20;;;;;;;6.97;4.95;;;;;;;13.96;63.44;98049.47;5091259;28;20028;-47
2023/12/31 07:11:45;;;;;;;9.50;6.15;;;;;;;13.92;63.43;98035.16;5092829;28;20028;-47
2023/12/31 07:14:11;;;;;;;8.10;5.10;;;;;;;13.94;63.59;98042.81;5092478;28;20066;-47
2023/12/31 07:16:37;;;;;;;6.82;5.32;;;;;;;13.91;63.66;98038.81;5091108;28;20115;-47
2023/12/31 07:19:02;;;;;;;7.68;5.10;;;;;;;13.85;63.81;98044.25;5091099;28;20689;-47
2023/12/31 07:21:28;;;;;;;8.13;5.50;;;;;;;13.72;63.91;98058.50;5092494;28;20035;-47
2023/12/31 07:23:54;;;;;;;7.18;5.13;;;;;;;13.74;64.56;98046.72;5090980;28;20019;-48
2023/12/31 07:26:26;;;;;;;7.88;4.88;;;;;;;13.74;64.17;98045.88;5092184;28;20051;-47
2023/12/31 07:28:53;;;;;;;10.80;9.70;;;;;;;13.69;64.43;98043.97;5092014;28;20514;-47
2023/12/31 07:31:19;;;;;;;7.90;5.30;;;;;;;13.77;64.85;98048.06;5090862;28;20020;-47
2023/12/31 07:33:44;;;;;;;20.98;16.42;;;;;;;13.95;64.24;98047.84;5092207;28;20150;-47
2023/12/31 07:36:10;;;;;;;8.05;6.20;;;;;;;13.97;63.55;98035.22;5090747;28;20123;-47
2023/12/31 07:38:36;;;;;;;16.45;14.88;;;;;;;13.88;63.63;98033.22;5090806;28;20031;-47
2023/12/31 07:41:02;;;;;;;9.10;5.30;;;;;;;13.92;63.71;98026.41;5090785;28;20020;-47
2023/12/31 07:43:28;;;;;;;6.85;4.50;;;;;;;13.92;63.43;98040.44;5090738;28;20390;-47
2023/12/31 07:45:53;;;;;;;6.72;4.35;;;;;;;13.96;63.00;98040.72;5091929;28;20020;-47
2023/12/31 07:48:19;;;;;;;5.35;4.63;;;;;;;14.02;63.22;98044.25;5090820;28;20020;-47
2023/12/31 07:50:45;;;;;;;10.80;6.30;;;;;;;14.10;62.96;98035.94;5090608;28;20043;-47
2023/12/31 07:53:11;;;;;;;7.35;4.68;;;;;;;14.22;62.32;98031.41;5091902;28;20031;-47
2023/12/31 07:55:37;;;;;;;6.65;4.40;;;;;;;14.26;61.51;98024.59;5073835;28;20036;-47
2023/12/31 07:58:02;;;;;;;6.07;5.03;;;;;;;14.24;61.23;98037.22;5091853;28;20019;-47
2023/12/31 08:00:28;;;;;;;5.22;4.10;;;;;;;14.27;60.74;98039.41;5091886;28;20024;-47
2023/12/31 08:02:54;;;;;;;6.00;3.92;;;;;;;14.34;61.20;98041.88;5090621;28;20437;-47
2023/12/31 08:05:20;;;;;;;5.85;3.65;;;;;;;14.42;60.17;98038.03;5091661;28;20027;-47
2023/12/31 08:07:45;;;;;;;11.43;10.23;;;;;;;14.44;60.15;98036.75;5091767;28;20383;-47
2023/12/31 08:10:11;;;;;;;4.85;4.32;;;;;;;14.58;60.52;98045.97;5091642;28;20020;-47
2023/12/31 08:12:37;;;;;;;9.68;4.13;;;;;;;14.74;59.39;98046.19;5091754;28;20016;-47
2023/12/31 08:15:04;;;;;;;4.40;3.72;;;;;;;14.92;58.90;98045.13;5090501;28;20020;-48
2023/12/31 08:17:30;;;;;;;4.40;3.80;;;;;;;14.95;58.45;98041.97;5091641;28;20044;-47
2023/12/31 08:19:55;;;;;;;8.48;4.50;;;;;;;14.92;58.11;98045.91;5091682;28;20055;-47
2023/12/31 08:22:21;;;;;;;7.38;5.78;;;;;;;14.95;58.00;98037.50;5091581;28;20030;-47
2023/12/31 08:24:47;;;;;;;7.50;4.78;;;;;;;15.05;57.48;98025.44;5091567;28;20016;-47
2023/12/31 08:27:12;;;;;;;6.07;4.15;;;;;;;15.00;57.87;98026.19;5091412;28;20024;-50
2023/12/31 08:29:41;;;;;;;8.00;6.38;;;;;;;15.03;57.95;98030.19;5091634;28;20028;-47
2023/12/31 08:32:07;;;;;;;7.00;4.82;;;;;;;15.13;56.83;98030.31;5091460;28;20493;-47
2023/12/31 08:34:33;;;;;;;11.35;5.85;;;;;;;15.04;57.43;98019.38;5091932;28;20039;-47
2023/12/31 08:36:59;;;;;;;8.73;5.72;;;;;;;15.18;57.93;98017.97;5095562;28;20024;-47
2023/12/31 08:39:24;;;;;;;6.32;4.93;;;;;;;15.28;57.02;98014.63;5094179;28;20020;-47
2023/12/31 08:41:50;;;;;;;8.93;6.10;;;;;;;15.21;57.01;98007.94;5095374;28;20107;-47
2023/12/31 08:44:16;;;;;;;7.13;4.85;;;;;;;15.02;57.71;98010.91;5094027;28;20096;-47
2023/12/31 08:46:41;;;;;;;6.70;5.18;;;;;;;14.94;58.32;98009.47;5095254;28;20021;-47
2023/12/31 08:49:07;;;;;;;8.73;5.50;;;;;;;14.94;58.21;98013.97;5093946;28;20379;-47
2023/12/31 08:51:33;;;;;;;10.27;5.65;;;;;;;14.83;58.74;98009.59;5095255;28;20412;-47
2023/12/31 08:53:58;;;;;;;9.40;4.80;;;;;;;14.73;59.40;98008.44;5093869;28;20130;-47
2023/12/31 08:56:24;;;;;;;6.32;5.70;;;;;;;14.72;59.94;98012.09;5095129;28;20028;-48
2023/12/31 08:58:50;;;;;;;9.15;4.88;;;;;;;14.78;59.65;98020.91;5095133;28;20024;-47
2023/12/31 09:01:18;;;;;;;8.82;6.15;;;;;;;14.71;59.91;98012.34;5094992;28;20401;-46
2023/12/31 09:03:44;;;;;;;7.57;4.78;;;;;;;14.70;60.12;97965.84;5095253;28;20385;-47
2023/12/31 09:06:12;;;;;;;10.77;7.90;;;;;;;14.67;60.35;98005.94;5076648;28;20039;-47
2023/12/31 09:08:38;;;;;;;6.38;4.93;;;;;;;14.64;60.69;98001.16;5094905;28;20402;-47
2023/12/31 09:11:04;;;;;;;12.13;10.75;;;;;;;14.55;61.53;98012.09;5093483;28;20024;-47
2023/12/31 09:13:30;;;;;;;8.48;6.28;;;;;;;14.61;60.92;98001.63;5093485;28;20024;-45
2023/12/31 09:15:55;;;;;;;7.93;5.47;;;;;;;14.60;61.29;97995.56;5094793;28;20393;-45
2023/12/31 09:18:23;;;;;;;6.25;5.20;;;;;;;14.56;61.03;97992.59;5093373;28;20043;-45
2023/12/31 09:20:49;;;;;;;10.77;5.72;;;;;;;14.45;61.34;98014.59;5093540;28;20039;-45
2023/12/31 09:23:16;;;;;;;6.10;5.20;;;;;;;14.39;61.63;97999.72;5094635;28;20039;-45
2023/12/31 09:25:42;;;;;;;8.05;5.85;;;;;;;14.17;62.38;97981.97;5094500;28;20024;-45
2023/12/31 09:28:08;;;;;;;6.38;5.72;;;;;;;14.09;63.07;98000.06;5093154;28;20040;-45
2023/12/31 09:30:34;;;;;;;12.00;6.13;;;;;;;14.13;63.23;97978.22;5093186;28;20024;-45
2023/12/31 09:32:59;;;;;;;7.63;5.75;;;;;;;14.14;62.89;98014.13;5094672;28;20035;-45
2023/12/31 09:35:25;;;;;;;7.07;5.53;;;;;;;14.19;63.38;97990.47;5094384;28;20031;-45
2023/12/31 09:37:51;;;;;;;10.07;5.22;;;;;;;14.25;62.67;97993.19;5093111;28;20032;-46
2023/12/31 09:40:17;;;;;;;7.47;5.25;;;;;;;14.30;62.59;97986.13;5094301;28;20031;-45
2023/12/31 09:42:50;;;;;;;10.80;5.90;;;;;;;14.41;62.42;98000.28;5093049;28;20111;-45
2023/12/31 09:45:23;;;;;;;5.90;4.97;;;;;;;14.53;63.60;97976.44;5092663;28;20533;-45
2023/12/31 09:47:53;;;;;;;11.20;7.35;;;;;;;14.60;63.54;98003.47;5094168;28;20454;-45
2023/12/31 09:50:21;;;;;;;8.32;6.95;;;;;;;14.56;62.75;97955.63;5092897;28;20051;-45
2023/12/31 09:52:48;;;;;;;11.55;8.48;;;;;;;14.52;62.97;97988.81;5094058;28;20085;-45
2023/12/31 09:55:18;;;;;;;14.48;13.02;;;;;;;14.52;63.75;97988.81;5075970;28;20028;-45
2023/12/31 09:57:46;;;;;;;15.73;13.43;;;;;;;14.48;62.67;97992.97;5094026;28;20020;-45
2023/12/31 10:00:13;;;;;;;6.88;5.60;;;;;;;14.46;63.04;97986.34;5093936;28;20089;-45
2023/12/31 10:02:39;;;;;;;8.20;6.13;;;;;;;14.52;62.89;97991.47;5093940;28;20054;-45
2023/12/31 10:05:09;;;;;;;8.88;5.63;;;;;;;14.47;63.13;97996.69;5093711;28;20027;-45
2023/12/31 10:07:35;;;;;;;17.13;10.38;;;;;;;14.41;63.22;97978.34;5092536;28;20398;-45
2023/12/31 10:10:03;;;;;;;6.57;4.78;;;;;;;14.36;63.18;97942.13;5093756;28;20016;-45
2023/12/31 10:12:30;;;;;;;7.03;5.03;;;;;;;14.14;64.51;97995.66;5092440;28;20059;-47
2023/12/31 10:14:55;;;;;;;8.82;4.63;;;;;;;14.07;65.70;97984.47;5093641;28;20028;-47
2023/12/31 10:17:21;;;;;;;8.52;5.03;;;;;;;13.92;67.13;97969.22;5093548;28;20024;-47
2023/12/31 10:19:47;;;;;;;5.93;5.32;;;;;;;13.57;68.26;97986.00;5092290;28;20027;-47
2023/12/31 10:22:16;;;;;;;6.32;4.53;;;;;;;13.51;68.58;97983.53;5093514;28;20092;-47
2023/12/31 10:24:42;;;;;;;7.72;5.18;;;;;;;13.50;70.62;97966.91;5092224;28;20020;-47
2023/12/31 10:27:11;;;;;;;6.75;3.60;;;;;;;13.57;71.17;97969.41;5093359;28;20358;-47
2023/12/31 10:29:37;;;;;;;3.97;3.17;;;;;;;13.69;68.77;97959.59;5093239;28;20040;-46
2023/12/31 10:32:05;;;;;;;10.35;7.57;;;;;;;13.83;70.26;97965.34;5093312;28;20016;-47
2023/12/31 10:34:32;;;;;;;9.18;5.32;;;;;;;13.98;69.93;97962.97;5093271;28;20065;-47
2023/12/31 10:37:03;;;;;;;20.90;18.63;;;;;;;13.77;72.93;97980.28;5093200;28;20020;-47
2023/12/31 10:39:32;;;;;;;17.13;14.90;;;;;;;13.19;75.87;97971.56;5091841;28;20027;-45
2023/12/31 10:42:00;;;;;;;12.63;10.10;;;;;;;12.60;80.09;97981.47;5092029;28;20031;-45
2023/12/31 10:44:26;;;;;;;7.85;5.70;;;;;;;12.10;85.30;97998.50;5092938;28;20515;-45
2023/12/31 10:46:56;;;;;;;15.30;7.88;;;;;;;11.78;90.36;98004.00;5091868;28;20020;-46
2023/12/31 10:49:24;;;;;;;8.73;5.82;;;;;;;11.67;95.25;98002.16;5074867;28;20386;-46
2023/12/31 10:51:53;;;;;;;11.82;5.72;;;;;;;11.47;97.74;98005.03;5093117;28;20026;-46
2023/12/31 10:54:30;;;;;;;7.15;5.32;;;;;;;11.36;100.00;97969.81;5091928;28;20020;-45
2023/12/31 10:56:58;;;;;;;6.38;5.00;;;;;;;11.19;100.00;97974.88;5092372;28;20088;-46
2023/12/31 10:59:25;;;;;;;12.30;8.63;;;;;;;11.10;100.00;97972.78;5092785;28;20055;-45
2023/12/31 11:01:52;;;;;;;12.38;10.70;;;;;;;11.31;100.00;97961.81;5092774;28;20040;-45
2023/12/31 11:04:21;;;;;;;22.13;19.02;;;;;;;11.49;100.00;97973.28;5092658;28;20048;-45
2023/12/31 11:06:47;;;;;;;11.32;7.38;;;;;;;11.54;100.00;97976.84;5092542;28;20413;-45
2023/12/31 11:09:14;;;;;;;10.25;8.80;;;;;;;11.67;100.00;97965.34;5092571;28;20514;-45
2023/12/31 11:11:42;;;;;;;8.85;6.07;;;;;;;11.93;100.00;97964.16;5091264;28;20490;-45
2023/12/31 11:14:10;;;;;;;13.25;7.88;;;;;;;12.09;100.00;97969.78;5092801;28;20389;-46
2023/12/31 11:17:09;;;;;;;6.63;4.95;;;;;;;12.17;100.00;97988.69;5092435;28;20561;-46
2023/12/31 11:19:59;;;;;;;10.25;6.43;;;;;;;12.16;100.00;97970.47;5092473;28;20074;-46
2023/12/31 11:23:02;;;;;;;9.98;6.32;;;;;;;12.23;100.00;97986.13;5092394;28;20509;-46
2023/12/31 11:25:28;;;;;;;18.50;8.60;;;;;;;12.38;100.00;97994.41;5092244;28;20024;-45